sensor_id;sensor_type;location;lat;lon;timestamp;temperature;humidity
7708;DHT22;3896;48.758;8.888;2023-07-09T00:02:20;22.10;67.30
7708;DHT22;3896;48.758;8.888;2023-07-09T00:04:46;22.00;67.60
7708;DHT22;3896;48.758;8.888;2023-07-09T00:07:19;22.00;67.90
7708;DHT22;3896;48.758;8.888;2023-07-09T00:09:47;22.00;68.00
7708;DHT22;3896;48.758;8.888;2023-07-09T00:12:14;21.90;68.20
7708;DHT22;3896;48.758;8.888;2023-07-09T00:14:40;21.80;68.30
7708;DHT22;3896;48.758;8.888;2023-07-09T00:17:23;21.80;68.50
7708;DHT22;3896;48.758;8.888;2023-07-09T00:19:51;21.70;68.70
7708;DHT22;3896;48.758;8.888;2023-07-09T00:22:18;21.70;69.10
7708;DHT22;3896;48.758;8.888;2023-07-09T00:24:45;21.70;69.40
7708;DHT22;3896;48.758;8.888;2023-07-09T00:27:13;21.60;69.50
7708;DHT22;3896;48.758;8.888;2023-07-09T00:29:41;21.60;69.70
7708;DHT22;3896;48.758;8.888;2023-07-09T00:32:17;21.50;69.80
7708;DHT22;3896;48.758;8.888;2023-07-09T00:34:46;21.40;69.80
7708;DHT22;3896;48.758;8.888;2023-07-09T00:37:15;21.40;70.10
7708;DHT22;3896;48.758;8.888;2023-07-09T00:39:43;21.40;70.50
7708;DHT22;3896;48.758;8.888;2023-07-09T00:42:16;21.40;70.60
7708;DHT22;3896;48.758;8.888;2023-07-09T00:44:44;21.30;70.60
7708;DHT22;3896;48.758;8.888;2023-07-09T00:47:23;21.30;71.10
7708;DHT22;3896;48.758;8.888;2023-07-09T00:49:56;21.20;71.10
7708;DHT22;3896;48.758;8.888;2023-07-09T00:52:42;21.20;71.50
7708;DHT22;3896;48.758;8.888;2023-07-09T00:55:14;21.10;71.30
7708;DHT22;3896;48.758;8.888;2023-07-09T00:57:43;21.10;72.00
7708;DHT22;3896;48.758;8.888;2023-07-09T01:00:15;21.00;72.10
7708;DHT22;3896;48.758;8.888;2023-07-09T01:02:46;21.00;72.50
7708;DHT22;3896;48.758;8.888;2023-07-09T01:05:15;21.00;72.60
7708;DHT22;3896;48.758;8.888;2023-07-09T01:07:42;21.00;72.90
7708;DHT22;3896;48.758;8.888;2023-07-09T01:10:12;20.90;73.10
7708;DHT22;3896;48.758;8.888;2023-07-09T01:12:39;20.90;73.50
7708;DHT22;3896;48.758;8.888;2023-07-09T01:15:05;20.90;73.90
7708;DHT22;3896;48.758;8.888;2023-07-09T01:17:33;20.80;73.90
7708;DHT22;3896;48.758;8.888;2023-07-09T01:19:59;20.80;74.10
7708;DHT22;3896;48.758;8.888;2023-07-09T01:22:25;20.70;74.40
7708;DHT22;3896;48.758;8.888;2023-07-09T01:27:23;20.70;74.80
7708;DHT22;3896;48.758;8.888;2023-07-09T01:29:49;20.60;74.80
7708;DHT22;3896;48.758;8.888;2023-07-09T01:32:16;20.60;75.10
7708;DHT22;3896;48.758;8.888;2023-07-09T01:34:44;20.60;75.40
7708;DHT22;3896;48.758;8.888;2023-07-09T01:37:18;20.50;75.30
7708;DHT22;3896;48.758;8.888;2023-07-09T01:39:44;20.50;75.70
7708;DHT22;3896;48.758;8.888;2023-07-09T01:42:10;20.50;75.90
7708;DHT22;3896;48.758;8.888;2023-07-09T01:44:36;20.40;76.20
7708;DHT22;3896;48.758;8.888;2023-07-09T01:47:04;20.40;76.40
7708;DHT22;3896;48.758;8.888;2023-07-09T01:49:30;20.40;76.70
7708;DHT22;3896;48.758;8.888;2023-07-09T01:51:59;20.30;76.90
7708;DHT22;3896;48.758;8.888;2023-07-09T01:54:30;20.30;77.00
7708;DHT22;3896;48.758;8.888;2023-07-09T01:57:22;20.30;77.20
7708;DHT22;3896;48.758;8.888;2023-07-09T01:59:52;20.20;77.00
7708;DHT22;3896;48.758;8.888;2023-07-09T02:02:20;20.20;77.80
7708;DHT22;3896;48.758;8.888;2023-07-09T02:04:47;20.10;77.80
7708;DHT22;3896;48.758;8.888;2023-07-09T02:07:13;20.10;78.10
7708;DHT22;3896;48.758;8.888;2023-07-09T02:09:39;20.10;78.50
7708;DHT22;3896;48.758;8.888;2023-07-09T02:12:05;20.10;78.90
7708;DHT22;3896;48.758;8.888;2023-07-09T02:14:31;20.00;79.10
7708;DHT22;3896;48.758;8.888;2023-07-09T02:16:56;20.00;79.60
7708;DHT22;3896;48.758;8.888;2023-07-09T02:19:22;19.90;79.70
7708;DHT22;3896;48.758;8.888;2023-07-09T02:21:47;19.90;80.00
7708;DHT22;3896;48.758;8.888;2023-07-09T02:24:13;19.90;80.20
7708;DHT22;3896;48.758;8.888;2023-07-09T02:26:38;19.80;80.50
7708;DHT22;3896;48.758;8.888;2023-07-09T02:29:04;19.80;80.80
7708;DHT22;3896;48.758;8.888;2023-07-09T02:31:30;19.80;81.20
7708;DHT22;3896;48.758;8.888;2023-07-09T02:33:56;19.80;81.60
7708;DHT22;3896;48.758;8.888;2023-07-09T02:36:23;19.70;82.00
7708;DHT22;3896;48.758;8.888;2023-07-09T02:38:49;19.70;82.40
7708;DHT22;3896;48.758;8.888;2023-07-09T02:41:15;19.70;82.90
7708;DHT22;3896;48.758;8.888;2023-07-09T02:43:40;19.60;83.20
7708;DHT22;3896;48.758;8.888;2023-07-09T02:46:06;19.60;83.60
7708;DHT22;3896;48.758;8.888;2023-07-09T02:48:32;19.60;83.90
7708;DHT22;3896;48.758;8.888;2023-07-09T02:50:57;19.50;83.50
7708;DHT22;3896;48.758;8.888;2023-07-09T02:53:23;19.50;84.10
7708;DHT22;3896;48.758;8.888;2023-07-09T02:55:48;19.50;84.20
7708;DHT22;3896;48.758;8.888;2023-07-09T02:58:14;19.50;84.30
7708;DHT22;3896;48.758;8.888;2023-07-09T03:00:39;19.40;84.30
7708;DHT22;3896;48.758;8.888;2023-07-09T03:03:05;19.40;84.40
7708;DHT22;3896;48.758;8.888;2023-07-09T03:05:30;19.40;84.80
7708;DHT22;3896;48.758;8.888;2023-07-09T03:07:56;19.40;85.10
7708;DHT22;3896;48.758;8.888;2023-07-09T03:10:21;19.30;85.40
7708;DHT22;3896;48.758;8.888;2023-07-09T03:12:47;19.30;85.60
7708;DHT22;3896;48.758;8.888;2023-07-09T03:15:12;19.30;86.10
7708;DHT22;3896;48.758;8.888;2023-07-09T03:17:38;19.20;86.70
7708;DHT22;3896;48.758;8.888;2023-07-09T03:20:04;19.20;87.10
7708;DHT22;3896;48.758;8.888;2023-07-09T03:22:30;19.10;87.10
7708;DHT22;3896;48.758;8.888;2023-07-09T03:24:56;19.10;87.60
7708;DHT22;3896;48.758;8.888;2023-07-09T03:27:21;19.10;87.90
7708;DHT22;3896;48.758;8.888;2023-07-09T03:29:47;19.10;88.30
7708;DHT22;3896;48.758;8.888;2023-07-09T03:32:12;19.00;88.50
7708;DHT22;3896;48.758;8.888;2023-07-09T03:34:38;19.00;89.10
7708;DHT22;3896;48.758;8.888;2023-07-09T03:37:04;18.90;89.20
7708;DHT22;3896;48.758;8.888;2023-07-09T03:39:30;19.00;89.50
7708;DHT22;3896;48.758;8.888;2023-07-09T03:41:55;18.90;89.60
7708;DHT22;3896;48.758;8.888;2023-07-09T03:44:21;18.90;90.00
7708;DHT22;3896;48.758;8.888;2023-07-09T03:46:46;18.80;90.00
7708;DHT22;3896;48.758;8.888;2023-07-09T03:49:12;18.90;90.30
7708;DHT22;3896;48.758;8.888;2023-07-09T03:51:37;18.80;90.30
7708;DHT22;3896;48.758;8.888;2023-07-09T03:54:03;18.80;90.40
7708;DHT22;3896;48.758;8.888;2023-07-09T03:56:28;18.80;90.70
7708;DHT22;3896;48.758;8.888;2023-07-09T03:58:54;18.80;90.90
7708;DHT22;3896;48.758;8.888;2023-07-09T04:01:19;18.70;90.90
7708;DHT22;3896;48.758;8.888;2023-07-09T04:03:45;18.70;91.10
7708;DHT22;3896;48.758;8.888;2023-07-09T04:06:11;18.70;91.30
7708;DHT22;3896;48.758;8.888;2023-07-09T04:08:36;18.70;91.50
7708;DHT22;3896;48.758;8.888;2023-07-09T04:11:02;18.70;91.80
7708;DHT22;3896;48.758;8.888;2023-07-09T04:13:28;18.70;92.00
7708;DHT22;3896;48.758;8.888;2023-07-09T04:15:55;18.60;92.10
7708;DHT22;3896;48.758;8.888;2023-07-09T04:18:21;18.60;92.30
7708;DHT22;3896;48.758;8.888;2023-07-09T04:20:50;18.60;92.40
7708;DHT22;3896;48.758;8.888;2023-07-09T04:23:16;18.60;92.40
7708;DHT22;3896;48.758;8.888;2023-07-09T04:25:42;18.60;93.00
7708;DHT22;3896;48.758;8.888;2023-07-09T04:28:08;18.60;93.30
7708;DHT22;3896;48.758;8.888;2023-07-09T04:30:33;18.60;93.30
7708;DHT22;3896;48.758;8.888;2023-07-09T04:32:59;18.60;93.50
7708;DHT22;3896;48.758;8.888;2023-07-09T04:35:24;18.60;93.90
7708;DHT22;3896;48.758;8.888;2023-07-09T04:37:50;18.60;94.10
7708;DHT22;3896;48.758;8.888;2023-07-09T04:40:18;18.60;94.50
7708;DHT22;3896;48.758;8.888;2023-07-09T04:42:43;18.70;94.60
7708;DHT22;3896;48.758;8.888;2023-07-09T04:45:10;18.70;94.80
7708;DHT22;3896;48.758;8.888;2023-07-09T04:47:37;18.70;94.70
7708;DHT22;3896;48.758;8.888;2023-07-09T04:50:05;18.70;94.80
7708;DHT22;3896;48.758;8.888;2023-07-09T04:52:31;18.70;94.90
7708;DHT22;3896;48.758;8.888;2023-07-09T04:54:56;18.80;94.90
7708;DHT22;3896;48.758;8.888;2023-07-09T04:57:22;18.80;94.60
7708;DHT22;3896;48.758;8.888;2023-07-09T04:59:48;18.80;95.00
7708;DHT22;3896;48.758;8.888;2023-07-09T05:02:14;18.90;95.50
7708;DHT22;3896;48.758;8.888;2023-07-09T05:04:40;18.90;95.40
7708;DHT22;3896;48.758;8.888;2023-07-09T05:07:06;18.90;95.00
7708;DHT22;3896;48.758;8.888;2023-07-09T05:09:32;19.00;95.00
7708;DHT22;3896;48.758;8.888;2023-07-09T05:11:58;19.00;94.80
7708;DHT22;3896;48.758;8.888;2023-07-09T05:14:23;19.00;94.30
7708;DHT22;3896;48.758;8.888;2023-07-09T05:16:49;19.10;93.90
7708;DHT22;3896;48.758;8.888;2023-07-09T05:19:14;19.10;94.10
7708;DHT22;3896;48.758;8.888;2023-07-09T05:21:40;19.10;93.90
7708;DHT22;3896;48.758;8.888;2023-07-09T05:24:06;19.20;93.50
7708;DHT22;3896;48.758;8.888;2023-07-09T05:26:31;19.30;93.50
7708;DHT22;3896;48.758;8.888;2023-07-09T05:28:57;19.30;93.00
7708;DHT22;3896;48.758;8.888;2023-07-09T05:31:23;19.30;92.80
7708;DHT22;3896;48.758;8.888;2023-07-09T05:33:48;19.40;92.30
7708;DHT22;3896;48.758;8.888;2023-07-09T05:36:14;19.40;92.20
7708;DHT22;3896;48.758;8.888;2023-07-09T05:38:42;19.50;92.00
7708;DHT22;3896;48.758;8.888;2023-07-09T05:41:08;19.50;92.30
7708;DHT22;3896;48.758;8.888;2023-07-09T05:43:34;19.60;92.90
7708;DHT22;3896;48.758;8.888;2023-07-09T05:46:01;19.60;92.30
7708;DHT22;3896;48.758;8.888;2023-07-09T05:48:28;19.70;92.00
7708;DHT22;3896;48.758;8.888;2023-07-09T05:50:54;19.70;91.60
7708;DHT22;3896;48.758;8.888;2023-07-09T05:53:23;19.80;91.20
7708;DHT22;3896;48.758;8.888;2023-07-09T05:55:52;19.80;91.20
7708;DHT22;3896;48.758;8.888;2023-07-09T05:58:17;19.90;91.20
7708;DHT22;3896;48.758;8.888;2023-07-09T06:00:43;20.00;91.00
7708;DHT22;3896;48.758;8.888;2023-07-09T06:03:09;20.00;91.30
7708;DHT22;3896;48.758;8.888;2023-07-09T06:05:34;20.10;91.00
7708;DHT22;3896;48.758;8.888;2023-07-09T06:08:00;20.10;91.00
7708;DHT22;3896;48.758;8.888;2023-07-09T06:10:26;20.20;91.00
7708;DHT22;3896;48.758;8.888;2023-07-09T06:12:51;20.30;91.40
7708;DHT22;3896;48.758;8.888;2023-07-09T06:15:18;20.30;91.10
7708;DHT22;3896;48.758;8.888;2023-07-09T06:17:44;20.40;91.00
7708;DHT22;3896;48.758;8.888;2023-07-09T06:20:10;20.50;90.80
7708;DHT22;3896;48.758;8.888;2023-07-09T06:22:36;20.60;90.80
7708;DHT22;3896;48.758;8.888;2023-07-09T06:25:01;20.60;90.60
7708;DHT22;3896;48.758;8.888;2023-07-09T06:27:27;20.70;90.60
7708;DHT22;3896;48.758;8.888;2023-07-09T06:29:52;20.80;90.70
7708;DHT22;3896;48.758;8.888;2023-07-09T06:32:18;20.90;90.90
7708;DHT22;3896;48.758;8.888;2023-07-09T06:34:44;21.00;90.80
7708;DHT22;3896;48.758;8.888;2023-07-09T06:37:09;21.10;90.80
7708;DHT22;3896;48.758;8.888;2023-07-09T06:39:35;21.10;90.40
7708;DHT22;3896;48.758;8.888;2023-07-09T06:42:00;21.20;90.30
7708;DHT22;3896;48.758;8.888;2023-07-09T06:44:26;21.30;90.30
7708;DHT22;3896;48.758;8.888;2023-07-09T06:46:52;21.40;90.40
7708;DHT22;3896;48.758;8.888;2023-07-09T06:49:17;21.50;90.20
7708;DHT22;3896;48.758;8.888;2023-07-09T06:51:43;21.60;90.10
7708;DHT22;3896;48.758;8.888;2023-07-09T06:54:09;21.70;89.60
7708;DHT22;3896;48.758;8.888;2023-07-09T06:56:34;21.80;89.50
7708;DHT22;3896;48.758;8.888;2023-07-09T06:59:00;21.90;89.40
7708;DHT22;3896;48.758;8.888;2023-07-09T07:01:25;22.00;88.80
7708;DHT22;3896;48.758;8.888;2023-07-09T07:03:51;22.10;88.50
7708;DHT22;3896;48.758;8.888;2023-07-09T07:06:16;22.20;88.30
7708;DHT22;3896;48.758;8.888;2023-07-09T07:08:42;22.30;87.80
7708;DHT22;3896;48.758;8.888;2023-07-09T07:11:08;22.40;87.50
7708;DHT22;3896;48.758;8.888;2023-07-09T07:13:35;22.50;86.60
7708;DHT22;3896;48.758;8.888;2023-07-09T07:16:03;22.70;85.70
7708;DHT22;3896;48.758;8.888;2023-07-09T07:18:29;22.80;84.90
7708;DHT22;3896;48.758;8.888;2023-07-09T07:20:55;22.90;84.00
7708;DHT22;3896;48.758;8.888;2023-07-09T07:23:20;23.10;83.30
7708;DHT22;3896;48.758;8.888;2023-07-09T07:25:46;23.20;82.40
7708;DHT22;3896;48.758;8.888;2023-07-09T07:28:12;23.40;82.40
7708;DHT22;3896;48.758;8.888;2023-07-09T07:30:38;23.50;81.40
7708;DHT22;3896;48.758;8.888;2023-07-09T07:33:04;23.60;80.10
7708;DHT22;3896;48.758;8.888;2023-07-09T07:35:29;23.80;79.70
7708;DHT22;3896;48.758;8.888;2023-07-09T07:37:55;23.90;78.70
7708;DHT22;3896;48.758;8.888;2023-07-09T07:40:21;24.10;77.40
7708;DHT22;3896;48.758;8.888;2023-07-09T07:42:46;24.20;76.50
7708;DHT22;3896;48.758;8.888;2023-07-09T07:45:12;24.40;75.10
7708;DHT22;3896;48.758;8.888;2023-07-09T07:47:38;24.50;73.80
7708;DHT22;3896;48.758;8.888;2023-07-09T07:50:05;24.70;72.70
7708;DHT22;3896;48.758;8.888;2023-07-09T07:52:31;24.80;71.00
7708;DHT22;3896;48.758;8.888;2023-07-09T07:54:57;25.00;70.70
7708;DHT22;3896;48.758;8.888;2023-07-09T07:57:24;25.10;70.00
7708;DHT22;3896;48.758;8.888;2023-07-09T07:59:50;25.20;68.50
7708;DHT22;3896;48.758;8.888;2023-07-09T08:02:16;25.40;67.50
7708;DHT22;3896;48.758;8.888;2023-07-09T08:04:41;25.60;66.80
7708;DHT22;3896;48.758;8.888;2023-07-09T08:07:08;25.80;66.70
7708;DHT22;3896;48.758;8.888;2023-07-09T08:09:34;26.00;66.30
7708;DHT22;3896;48.758;8.888;2023-07-09T08:12:01;26.10;65.30
7708;DHT22;3896;48.758;8.888;2023-07-09T08:14:26;26.30;64.40
7708;DHT22;3896;48.758;8.888;2023-07-09T08:16:52;26.40;63.50
7708;DHT22;3896;48.758;8.888;2023-07-09T08:19:19;26.60;62.60
7708;DHT22;3896;48.758;8.888;2023-07-09T08:21:45;26.70;61.80
7708;DHT22;3896;48.758;8.888;2023-07-09T08:24:11;26.90;61.10
7708;DHT22;3896;48.758;8.888;2023-07-09T08:26:37;27.10;60.80
7708;DHT22;3896;48.758;8.888;2023-07-09T08:29:03;27.20;61.00
7708;DHT22;3896;48.758;8.888;2023-07-09T08:31:29;27.40;60.30
7708;DHT22;3896;48.758;8.888;2023-07-09T08:33:54;27.60;59.80
7708;DHT22;3896;48.758;8.888;2023-07-09T08:36:20;27.70;59.20
7708;DHT22;3896;48.758;8.888;2023-07-09T08:38:45;27.90;58.00
7708;DHT22;3896;48.758;8.888;2023-07-09T08:44:09;28.20;56.70
7708;DHT22;3896;48.758;8.888;2023-07-09T08:49:30;28.70;55.30
7708;DHT22;3896;48.758;8.888;2023-07-09T08:51:59;28.80;54.60
7708;DHT22;3896;48.758;8.888;2023-07-09T08:54:31;29.00;54.40
7708;DHT22;3896;48.758;8.888;2023-07-09T08:57:02;29.20;53.80
7708;DHT22;3896;48.758;8.888;2023-07-09T08:59:33;29.30;53.40
7708;DHT22;3896;48.758;8.888;2023-07-09T09:02:00;29.50;53.60
7708;DHT22;3896;48.758;8.888;2023-07-09T09:04:31;29.70;53.60
7708;DHT22;3896;48.758;8.888;2023-07-09T09:09:44;30.00;52.30
7708;DHT22;3896;48.758;8.888;2023-07-09T09:12:15;30.10;51.70
7708;DHT22;3896;48.758;8.888;2023-07-09T09:14:52;30.30;50.70
7708;DHT22;3896;48.758;8.888;2023-07-09T09:17:20;30.40;50.30
7708;DHT22;3896;48.758;8.888;2023-07-09T09:20:04;30.60;49.70
7708;DHT22;3896;48.758;8.888;2023-07-09T09:22:53;30.80;49.30
7708;DHT22;3896;48.758;8.888;2023-07-09T09:25:31;31.00;49.30
7708;DHT22;3896;48.758;8.888;2023-07-09T09:27:58;31.20;48.70
7708;DHT22;3896;48.758;8.888;2023-07-09T09:30:25;31.40;48.60
7708;DHT22;3896;48.758;8.888;2023-07-09T09:32:55;31.60;47.60
7708;DHT22;3896;48.758;8.888;2023-07-09T09:35:28;31.80;47.00
7708;DHT22;3896;48.758;8.888;2023-07-09T09:37:56;31.90;46.70
7708;DHT22;3896;48.758;8.888;2023-07-09T09:40:23;32.00;46.70
7708;DHT22;3896;48.758;8.888;2023-07-09T09:42:50;32.20;46.10
7708;DHT22;3896;48.758;8.888;2023-07-09T09:45:18;32.40;45.90
7708;DHT22;3896;48.758;8.888;2023-07-09T09:47:46;32.60;45.60
7708;DHT22;3896;48.758;8.888;2023-07-09T09:50:16;32.80;45.80
7708;DHT22;3896;48.758;8.888;2023-07-09T09:52:43;32.90;44.70
7708;DHT22;3896;48.758;8.888;2023-07-09T09:55:22;33.00;43.80
7708;DHT22;3896;48.758;8.888;2023-07-09T09:57:52;33.20;43.00
7708;DHT22;3896;48.758;8.888;2023-07-09T10:00:21;33.30;42.40
7708;DHT22;3896;48.758;8.888;2023-07-09T10:02:47;33.50;42.10
7708;DHT22;3896;48.758;8.888;2023-07-09T10:05:16;33.60;41.80
7708;DHT22;3896;48.758;8.888;2023-07-09T10:07:59;33.70;41.50
7708;DHT22;3896;48.758;8.888;2023-07-09T10:10:30;33.80;41.40
7708;DHT22;3896;48.758;8.888;2023-07-09T10:13:18;34.00;41.00
7708;DHT22;3896;48.758;8.888;2023-07-09T10:18:55;34.20;41.50
7708;DHT22;3896;48.758;8.888;2023-07-09T10:24:35;34.40;40.40
7708;DHT22;3896;48.758;8.888;2023-07-09T10:27:04;34.50;39.60
7708;DHT22;3896;48.758;8.888;2023-07-09T10:29:49;34.70;39.60
7708;DHT22;3896;48.758;8.888;2023-07-09T10:35:22;34.80;39.20
7708;DHT22;3896;48.758;8.888;2023-07-09T10:43:03;35.20;38.30
7708;DHT22;3896;48.758;8.888;2023-07-09T10:45:42;35.30;38.20
7708;DHT22;3896;48.758;8.888;2023-07-09T10:48:42;35.50;37.80
7708;DHT22;3896;48.758;8.888;2023-07-09T10:53:51;35.80;37.00
7708;DHT22;3896;48.758;8.888;2023-07-09T10:56:22;35.90;36.40
7708;DHT22;3896;48.758;8.888;2023-07-09T10:59:00;36.10;35.90
7708;DHT22;3896;48.758;8.888;2023-07-09T11:01:40;36.20;36.00
7708;DHT22;3896;48.758;8.888;2023-07-09T11:04:10;36.40;36.20
7708;DHT22;3896;48.758;8.888;2023-07-09T11:06:39;36.50;36.30
7708;DHT22;3896;48.758;8.888;2023-07-09T11:09:22;36.60;36.00
7708;DHT22;3896;48.758;8.888;2023-07-09T11:11:53;36.70;35.90
7708;DHT22;3896;48.758;8.888;2023-07-09T11:14:25;36.90;35.00
7708;DHT22;3896;48.758;8.888;2023-07-09T11:16:55;36.90;34.90
7708;DHT22;3896;48.758;8.888;2023-07-09T11:19:21;37.00;34.50
7708;DHT22;3896;48.758;8.888;2023-07-09T11:24:33;37.10;34.60
7708;DHT22;3896;48.758;8.888;2023-07-09T11:26:59;37.30;34.50
7708;DHT22;3896;48.758;8.888;2023-07-09T11:29:26;37.40;34.10
7708;DHT22;3896;48.758;8.888;2023-07-09T11:31:53;37.60;33.90
7708;DHT22;3896;48.758;8.888;2023-07-09T11:34:27;37.70;33.60
7708;DHT22;3896;48.758;8.888;2023-07-09T11:36:57;37.80;33.20
7708;DHT22;3896;48.758;8.888;2023-07-09T11:39:41;38.00;32.80
7708;DHT22;3896;48.758;8.888;2023-07-09T11:44:56;38.20;31.70
7708;DHT22;3896;48.758;8.888;2023-07-09T11:47:27;38.30;31.00
7708;DHT22;3896;48.758;8.888;2023-07-09T11:51:02;38.40;31.20
7708;DHT22;3896;48.758;8.888;2023-07-09T11:55:41;38.50;31.30
7708;DHT22;3896;48.758;8.888;2023-07-09T11:58:10;38.60;30.90
7708;DHT22;3896;48.758;8.888;2023-07-09T12:00:40;38.80;30.60
7708;DHT22;3896;48.758;8.888;2023-07-09T12:03:09;38.90;30.30
7708;DHT22;3896;48.758;8.888;2023-07-09T12:05:37;39.00;30.00
7708;DHT22;3896;48.758;8.888;2023-07-09T12:08:06;39.00;29.90
7708;DHT22;3896;48.758;8.888;2023-07-09T12:10:34;39.20;29.80
7708;DHT22;3896;48.758;8.888;2023-07-09T12:13:00;39.30;29.50
7708;DHT22;3896;48.758;8.888;2023-07-09T12:15:28;39.50;29.50
7708;DHT22;3896;48.758;8.888;2023-07-09T12:17:55;39.60;29.30
7708;DHT22;3896;48.758;8.888;2023-07-09T12:20:21;39.70;29.40
7708;DHT22;3896;48.758;8.888;2023-07-09T12:22:47;39.80;29.30
7708;DHT22;3896;48.758;8.888;2023-07-09T12:25:21;40.00;29.00
7708;DHT22;3896;48.758;8.888;2023-07-09T12:27:47;40.10;29.10
7708;DHT22;3896;48.758;8.888;2023-07-09T12:30:13;40.30;28.90
7708;DHT22;3896;48.758;8.888;2023-07-09T12:32:47;40.40;29.20
7708;DHT22;3896;48.758;8.888;2023-07-09T12:35:15;40.50;29.50
7708;DHT22;3896;48.758;8.888;2023-07-09T12:37:43;40.70;28.80
7708;DHT22;3896;48.758;8.888;2023-07-09T12:40:30;40.70;28.80
7708;DHT22;3896;48.758;8.888;2023-07-09T12:42:56;40.70;29.10
7708;DHT22;3896;48.758;8.888;2023-07-09T12:45:23;40.80;28.70
7708;DHT22;3896;48.758;8.888;2023-07-09T12:47:49;40.90;28.80
7708;DHT22;3896;48.758;8.888;2023-07-09T12:50:26;41.00;28.50
7708;DHT22;3896;48.758;8.888;2023-07-09T12:52:55;41.20;28.60
7708;DHT22;3896;48.758;8.888;2023-07-09T12:55:25;41.30;28.20
7708;DHT22;3896;48.758;8.888;2023-07-09T12:57:55;41.40;28.20
7708;DHT22;3896;48.758;8.888;2023-07-09T13:00:22;41.50;27.80
7708;DHT22;3896;48.758;8.888;2023-07-09T13:02:54;41.50;28.10
7708;DHT22;3896;48.758;8.888;2023-07-09T13:05:23;41.60;27.90
7708;DHT22;3896;48.758;8.888;2023-07-09T13:07:54;41.70;28.00
7708;DHT22;3896;48.758;8.888;2023-07-09T13:10:29;41.70;27.90
7708;DHT22;3896;48.758;8.888;2023-07-09T13:13:00;41.80;27.20
7708;DHT22;3896;48.758;8.888;2023-07-09T13:15:31;42.00;27.00
7708;DHT22;3896;48.758;8.888;2023-07-09T13:18:05;42.10;27.00
7708;DHT22;3896;48.758;8.888;2023-07-09T13:20:35;42.20;26.70
7708;DHT22;3896;48.758;8.888;2023-07-09T13:23:18;42.40;26.10
7708;DHT22;3896;48.758;8.888;2023-07-09T13:25:45;42.50;26.10
7708;DHT22;3896;48.758;8.888;2023-07-09T13:28:22;42.70;25.50
7708;DHT22;3896;48.758;8.888;2023-07-09T13:30:50;42.80;25.00
7708;DHT22;3896;48.758;8.888;2023-07-09T13:33:17;42.80;24.50
7708;DHT22;3896;48.758;8.888;2023-07-09T13:35:44;42.80;24.20
7708;DHT22;3896;48.758;8.888;2023-07-09T13:38:18;42.80;23.80
7708;DHT22;3896;48.758;8.888;2023-07-09T13:40:45;42.80;23.70
7708;DHT22;3896;48.758;8.888;2023-07-09T13:43:18;42.90;23.50
7708;DHT22;3896;48.758;8.888;2023-07-09T13:45:45;42.90;23.80
7708;DHT22;3896;48.758;8.888;2023-07-09T13:48:15;43.00;23.70
7708;DHT22;3896;48.758;8.888;2023-07-09T13:50:42;43.00;24.00
7708;DHT22;3896;48.758;8.888;2023-07-09T13:53:14;43.10;23.60
7708;DHT22;3896;48.758;8.888;2023-07-09T13:55:40;43.20;23.10
7708;DHT22;3896;48.758;8.888;2023-07-09T13:58:11;43.30;23.00
7708;DHT22;3896;48.758;8.888;2023-07-09T14:00:39;43.50;23.50
7708;DHT22;3896;48.758;8.888;2023-07-09T14:03:17;43.60;22.90
7708;DHT22;3896;48.758;8.888;2023-07-09T14:05:44;43.70;23.30
7708;DHT22;3896;48.758;8.888;2023-07-09T14:08:11;43.90;22.60
7708;DHT22;3896;48.758;8.888;2023-07-09T14:10:36;44.00;22.00
7708;DHT22;3896;48.758;8.888;2023-07-09T14:13:02;43.90;21.90
7708;DHT22;3896;48.758;8.888;2023-07-09T14:15:28;44.00;21.60
7708;DHT22;3896;48.758;8.888;2023-07-09T14:17:54;44.00;21.50
7708;DHT22;3896;48.758;8.888;2023-07-09T14:20:24;44.00;21.60
7708;DHT22;3896;48.758;8.888;2023-07-09T14:22:50;44.00;21.70
7708;DHT22;3896;48.758;8.888;2023-07-09T14:25:24;44.00;22.20
7708;DHT22;3896;48.758;8.888;2023-07-09T14:27:52;44.00;22.20
7708;DHT22;3896;48.758;8.888;2023-07-09T14:30:22;44.00;22.40
7708;DHT22;3896;48.758;8.888;2023-07-09T14:32:49;44.00;22.00
7708;DHT22;3896;48.758;8.888;2023-07-09T14:35:21;44.00;22.00
7708;DHT22;3896;48.758;8.888;2023-07-09T14:37:48;44.10;22.00
7708;DHT22;3896;48.758;8.888;2023-07-09T14:40:15;44.20;22.20
7708;DHT22;3896;48.758;8.888;2023-07-09T14:42:42;44.20;22.50
7708;DHT22;3896;48.758;8.888;2023-07-09T14:45:22;44.30;22.80
7708;DHT22;3896;48.758;8.888;2023-07-09T14:47:50;44.20;23.10
7708;DHT22;3896;48.758;8.888;2023-07-09T14:50:17;44.30;22.80
7708;DHT22;3896;48.758;8.888;2023-07-09T14:52:44;44.40;23.40
7708;DHT22;3896;48.758;8.888;2023-07-09T14:55:16;44.50;23.50
7708;DHT22;3896;48.758;8.888;2023-07-09T14:57:41;44.60;23.10
7708;DHT22;3896;48.758;8.888;2023-07-09T15:00:15;44.70;22.90
7708;DHT22;3896;48.758;8.888;2023-07-09T15:02:43;44.60;23.20
7708;DHT22;3896;48.758;8.888;2023-07-09T15:05:14;44.70;23.00
7708;DHT22;3896;48.758;8.888;2023-07-09T15:07:40;44.80;22.70
7708;DHT22;3896;48.758;8.888;2023-07-09T15:10:06;44.80;23.00
7708;DHT22;3896;48.758;8.888;2023-07-09T15:12:34;44.80;22.90
7708;DHT22;3896;48.758;8.888;2023-07-09T15:15:22;44.80;22.70
7708;DHT22;3896;48.758;8.888;2023-07-09T15:17:49;44.70;22.90
7708;DHT22;3896;48.758;8.888;2023-07-09T15:20:20;44.60;23.00
7708;DHT22;3896;48.758;8.888;2023-07-09T15:22:48;44.40;23.10
7708;DHT22;3896;48.758;8.888;2023-07-09T15:25:40;44.30;23.00
7708;DHT22;3896;48.758;8.888;2023-07-09T15:28:11;44.00;23.10
7708;DHT22;3896;48.758;8.888;2023-07-09T15:30:37;43.80;22.90
7708;DHT22;3896;48.758;8.888;2023-07-09T15:33:04;43.70;23.10
7708;DHT22;3896;48.758;8.888;2023-07-09T15:35:35;43.60;23.10
7708;DHT22;3896;48.758;8.888;2023-07-09T15:38:20;43.40;23.70
7708;DHT22;3896;48.758;8.888;2023-07-09T15:40:47;43.30;23.90
7708;DHT22;3896;48.758;8.888;2023-07-09T15:43:14;43.10;23.80
7708;DHT22;3896;48.758;8.888;2023-07-09T15:45:45;43.10;23.50
7708;DHT22;3896;48.758;8.888;2023-07-09T15:48:25;42.90;23.40
7708;DHT22;3896;48.758;8.888;2023-07-09T15:50:51;42.70;23.70
7708;DHT22;3896;48.758;8.888;2023-07-09T15:53:17;42.60;23.40
7708;DHT22;3896;48.758;8.888;2023-07-09T15:55:43;42.40;24.00
7708;DHT22;3896;48.758;8.888;2023-07-09T15:58:19;42.20;23.90
7708;DHT22;3896;48.758;8.888;2023-07-09T16:00:46;42.00;23.70
7708;DHT22;3896;48.758;8.888;2023-07-09T16:03:11;42.00;23.50
7708;DHT22;3896;48.758;8.888;2023-07-09T16:05:38;41.80;23.40
7708;DHT22;3896;48.758;8.888;2023-07-09T16:08:04;41.60;23.80
7708;DHT22;3896;48.758;8.888;2023-07-09T16:10:30;41.50;24.00
7708;DHT22;3896;48.758;8.888;2023-07-09T16:12:57;41.40;24.40
7708;DHT22;3896;48.758;8.888;2023-07-09T16:15:23;41.20;24.20
7708;DHT22;3896;48.758;8.888;2023-07-09T16:17:49;41.10;25.10
7708;DHT22;3896;48.758;8.888;2023-07-09T16:20:18;40.90;25.40
7708;DHT22;3896;48.758;8.888;2023-07-09T16:22:46;40.80;25.50
7708;DHT22;3896;48.758;8.888;2023-07-09T16:25:33;40.60;25.80
7708;DHT22;3896;48.758;8.888;2023-07-09T16:27:59;40.40;25.40
7708;DHT22;3896;48.758;8.888;2023-07-09T16:30:27;40.30;25.40
7708;DHT22;3896;48.758;8.888;2023-07-09T16:32:57;40.10;25.70
7708;DHT22;3896;48.758;8.888;2023-07-09T16:35:26;40.00;26.10
7708;DHT22;3896;48.758;8.888;2023-07-09T16:37:52;39.90;26.40
7708;DHT22;3896;48.758;8.888;2023-07-09T16:40:23;39.80;26.80
7708;DHT22;3896;48.758;8.888;2023-07-09T16:42:50;39.60;26.90
7708;DHT22;3896;48.758;8.888;2023-07-09T16:45:18;39.50;26.80
7708;DHT22;3896;48.758;8.888;2023-07-09T16:47:45;39.30;26.90